Terminal Aerodrome Forecast
Issued by NWS

Home | Current Version | Previous Version | Text Only | Print | Product List | Glossary Off
Versions: 1 2 3 4 5 6 7 8 9 10 11 12 13 14 15 16 17 18

000
FTUS43 KICT 171636 AAA
TAFHUT
TAF AMD
KHUT 171636Z 1717/1812 14010KT P6SM SCT015 SCT050 BKN250
      TEMPO 1717/1719 BKN015
     FM171900 15005KT P6SM VCTS BKN050CB
     FM180300 VRB05KT P6SM BKN100=

USA.gov is the U.S. government's official web portal to all federal, state and local government web resources and services.